Time;durP1;ratioP1;P1;durP2;ratioP2;P2;SDS_P1;SDS_P2;PMS_P1;PMS_P2;Temp;Humidity;BMP_temperature;BMP_pressure;BME280_temperature;BME280_humidity;BME280_pressure;Samples;Min_cycle;Max_cycle;Signal;HPM_P1;HPM_P2
2021/05/07 00:01:53;;;;;;;3.17;1.85;;;;;;;9.70;100.00;95405.88;4988266;28;20065;-68
2021/05/07 00:04:22;;;;;;;2.85;1.80;;;;;;;9.92;100.00;95407.03;4999777;28;20061;-68
2021/05/07 00:06:51;;;;;;;2.20;1.73;;;;;;;9.80;100.00;95410.97;5009173;28;20042;-67
2021/05/07 00:09:19;;;;;;;2.30;1.77;;;;;;;9.95;100.00;95411.94;4983039;28;20068;-68
2021/05/07 00:11:47;;;;;;;2.13;2.00;;;;;;;10.06;100.00;95410.78;5004983;28;20033;-67
2021/05/07 00:14:16;;;;;;;3.00;1.80;;;;;;;9.98;100.00;95414.25;4984753;28;20070;-67
2021/05/07 00:16:43;;;;;;;4.22;1.90;;;;;;;10.21;100.00;95407.28;5006070;28;20512;-69
2021/05/07 00:19:13;;;;;;;3.92;2.13;;;;;;;10.15;100.00;95409.75;4986870;28;20113;-67
2021/05/07 00:21:42;;;;;;;5.35;1.83;;;;;;;10.13;100.00;95407.31;4994065;28;20045;-67
2021/05/07 00:24:10;;;;;;;3.47;1.80;;;;;;;10.04;100.00;95402.22;4988199;28;20069;-66
2021/05/07 00:26:40;;;;;;;3.10;1.77;;;;;;;10.09;100.00;95397.28;4979980;28;20049;-66
2021/05/07 00:29:08;;;;;;;3.28;1.70;;;;;;;10.10;100.00;95397.09;4990334;28;20065;-66
2021/05/07 00:31:36;;;;;;;2.13;1.70;;;;;;;10.08;100.00;95404.38;4981590;28;20069;-67
2021/05/07 00:34:05;;;;;;;2.97;1.70;;;;;;;9.98;100.00;95403.72;4995250;28;20034;-67
2021/05/07 00:36:34;;;;;;;2.65;1.88;;;;;;;9.79;100.00;95401.44;5004973;28;22344;-67
2021/05/07 00:39:02;;;;;;;3.03;1.80;;;;;;;10.08;100.00;95414.06;4989198;28;20073;-65
2021/05/07 00:41:29;;;;;;;3.08;1.80;;;;;;;10.27;100.00;95407.66;5005351;28;20092;-65
2021/05/07 00:43:57;;;;;;;2.22;1.70;;;;;;;10.25;100.00;95409.56;5004589;28;20076;-67
2021/05/07 00:46:25;;;;;;;2.78;1.77;;;;;;;10.10;100.00;95405.00;4988176;28;20615;-66
2021/05/07 00:48:52;;;;;;;2.47;1.70;;;;;;;10.17;100.00;95405.97;5010391;28;20448;-66
2021/05/07 00:51:21;;;;;;;2.55;1.55;;;;;;;10.16;100.00;95409.59;5001655;28;20097;-65
2021/05/07 00:53:50;;;;;;;1.48;1.38;;;;;;;9.97;100.00;95408.16;5009499;28;20073;-66
2021/05/07 00:56:18;;;;;;;3.20;1.70;;;;;;;10.08;100.00;95414.06;5006720;28;20076;-67
2021/05/07 00:58:46;;;;;;;1.50;1.40;;;;;;;10.19;100.00;95406.66;5007671;28;20049;-67
2021/05/07 01:01:14;;;;;;;1.60;1.50;;;;;;;10.15;100.00;95412.41;4986101;28;20393;-67
2021/05/07 01:03:42;;;;;;;2.40;1.48;;;;;;;10.28;100.00;95412.72;5009999;28;20066;-67
2021/05/07 01:06:10;;;;;;;2.47;1.48;;;;;;;10.23;100.00;95415.03;4988743;28;20042;-65
2021/05/07 01:08:38;;;;;;;1.55;1.45;;;;;;;10.18;100.00;95415.50;5006815;28;20061;-68
2021/05/07 01:11:07;;;;;;;2.40;1.55;;;;;;;10.33;100.00;95412.25;5004667;28;20072;-67
2021/05/07 01:13:35;;;;;;;2.30;1.55;;;;;;;10.14;100.00;95418.66;5008021;28;20065;-66
2021/05/07 01:16:06;;;;;;;1.90;1.70;;;;;;;10.08;100.00;95417.53;5011102;28;20081;-67
2021/05/07 01:18:33;;;;;;;1.50;1.40;;;;;;;10.06;100.00;95421.31;5004825;28;20701;-67
2021/05/07 01:21:03;;;;;;;2.25;1.35;;;;;;;9.95;100.00;95423.31;5002626;28;20080;-66
2021/05/07 01:23:31;;;;;;;1.60;1.50;;;;;;;10.19;100.00;95416.38;5004290;28;20485;-68
2021/05/07 01:25:58;;;;;;;2.50;1.50;;;;;;;10.14;100.00;95416.84;5008386;28;20065;-67
2021/05/07 01:28:28;;;;;;;1.90;1.60;;;;;;;9.96;100.00;95422.31;5005006;28;20472;-67
2021/05/07 01:30:56;;;;;;;1.47;1.37;;;;;;;9.96;100.00;95416.22;5005756;28;20069;-66
2021/05/07 01:33:27;;;;;;;1.90;1.63;;;;;;;9.94;100.00;95415.56;5005992;28;20520;-67
2021/05/07 01:35:56;;;;;;;1.60;1.40;;;;;;;10.05;100.00;95423.13;5007493;28;20621;-67
2021/05/07 01:38:25;;;;;;;1.67;1.42;;;;;;;9.85;100.00;95424.47;5002166;28;20061;-67
2021/05/07 01:40:54;;;;;;;1.90;1.50;;;;;;;9.91;100.00;95423.78;4988577;28;20076;-68
2021/05/07 01:43:26;;;;;;;1.40;1.30;;;;;;;9.93;100.00;95419.19;5003416;28;20038;-67
2021/05/07 01:45:53;;;;;;;2.75;1.75;;;;;;;9.82;100.00;95422.97;5008104;28;20061;-67
2021/05/07 01:48:21;;;;;;;4.10;1.80;;;;;;;9.72;100.00;95424.97;5005296;28;20058;-66
2021/05/07 01:50:50;;;;;;;1.50;1.40;;;;;;;9.59;100.00;95425.44;5006717;28;20042;-67
2021/05/07 01:53:18;;;;;;;1.77;1.30;;;;;;;9.79;100.00;95427.75;4985877;28;20847;-67
2021/05/07 01:55:48;;;;;;;2.08;1.45;;;;;;;9.69;100.00;95433.19;5007152;28;20065;-66
2021/05/07 01:58:17;;;;;;;1.63;1.52;;;;;;;9.69;100.00;95439.25;5004490;28;20081;-66
2021/05/07 02:00:46;;;;;;;1.85;1.45;;;;;;;9.61;100.00;95452.44;5010048;28;20460;-67
2021/05/07 02:03:14;;;;;;;1.40;1.30;;;;;;;9.68;100.00;95449.97;5003699;28;20076;-67
2021/05/07 02:05:42;;;;;;;1.80;1.70;;;;;;;9.81;100.00;95445.03;5006961;28;20079;-66
2021/05/07 02:08:11;;;;;;;2.78;1.85;;;;;;;9.58;100.00;95450.13;5005518;28;20116;-67
2021/05/07 02:10:39;;;;;;;1.42;1.33;;;;;;;9.58;100.00;95441.41;5003965;28;20235;-67
2021/05/07 02:13:10;;;;;;;2.00;1.50;;;;;;;9.64;100.00;95444.22;5009889;28;20069;-68
2021/05/07 02:15:39;;;;;;;2.30;1.60;;;;;;;9.60;100.00;95453.44;5002531;28;20073;-67
2021/05/07 02:18:09;;;;;;;1.77;1.60;;;;;;;9.87;100.00;95440.91;5005771;28;20084;-66
2021/05/07 02:20:38;;;;;;;3.13;1.55;;;;;;;9.93;100.00;95448.97;4987710;28;20034;-67
2021/05/07 02:23:08;;;;;;;2.15;1.70;;;;;;;9.72;100.00;95452.09;4988233;28;20192;-67
2021/05/07 02:25:36;;;;;;;1.77;1.45;;;;;;;9.54;100.00;95450.63;5004265;28;20049;-66
2021/05/07 02:28:04;;;;;;;2.33;1.77;;;;;;;9.70;100.00;95456.72;5010382;28;20088;-66
2021/05/07 02:30:34;;;;;;;2.65;1.60;;;;;;;9.62;100.00;95461.97;5005653;28;20049;-66
2021/05/07 02:33:02;;;;;;;2.83;1.85;;;;;;;9.62;100.00;95463.78;5006142;28;20355;-66
2021/05/07 02:35:30;;;;;;;4.25;1.83;;;;;;;9.63;100.00;95466.22;5004005;28;20056;-65
2021/05/07 02:37:59;;;;;;;2.00;1.70;;;;;;;9.69;100.00;95456.88;4987102;28;20057;-66
2021/05/07 02:40:29;;;;;;;2.47;1.80;;;;;;;9.73;100.00;95464.28;5001853;28;21558;-66
2021/05/07 02:42:57;;;;;;;1.83;1.63;;;;;;;9.70;100.00;95463.78;4992761;28;20041;-67
2021/05/07 02:45:25;;;;;;;3.28;1.90;;;;;;;9.72;100.00;95467.06;5002585;28;20061;-66
2021/05/07 02:47:53;;;;;;;3.42;2.08;;;;;;;9.81;100.00;95460.84;5004566;28;20469;-65
2021/05/07 02:50:22;;;;;;;2.35;1.80;;;;;;;9.66;100.00;95471.19;5002442;28;20062;-64
2021/05/07 02:52:50;;;;;;;2.33;1.65;;;;;;;9.67;100.00;95462.31;5004372;28;20452;-66
2021/05/07 02:55:17;;;;;;;3.67;2.00;;;;;;;9.66;100.00;95465.91;5003068;28;20069;-67
2021/05/07 02:57:46;;;;;;;3.55;1.77;;;;;;;9.75;100.00;95467.56;5008305;28;20081;-67
2021/05/07 03:00:15;;;;;;;3.95;2.15;;;;;;;9.62;100.00;95471.69;5005115;28;20071;-67
2021/05/07 03:02:42;;;;;;;1.80;1.70;;;;;;;9.56;100.00;95462.63;4985183;28;20069;-66
2021/05/07 03:05:12;;;;;;;3.65;1.90;;;;;;;9.73;100.00;95469.53;5003952;28;20104;-67
2021/05/07 03:07:40;;;;;;;2.45;1.80;;;;;;;9.50;100.00;95466.72;5002601;28;20074;-65
2021/05/07 03:10:09;;;;;;;1.70;1.60;;;;;;;9.43;100.00;95468.38;5002597;28;20081;-65
2021/05/07 03:12:37;;;;;;;3.17;1.75;;;;;;;9.55;100.00;95460.16;5004869;28;20291;-66
2021/05/07 03:15:06;;;;;;;2.85;1.83;;;;;;;9.43;100.00;95457.03;5003479;28;20069;-66
2021/05/07 03:17:33;;;;;;;2.65;2.00;;;;;;;9.42;100.00;95460.63;5002947;28;20077;-66
2021/05/07 03:20:01;;;;;;;2.58;1.63;;;;;;;9.29;100.00;95476.91;5005170;28;20068;-66
2021/05/07 03:22:30;;;;;;;4.68;1.90;;;;;;;9.30;100.00;95469.81;5002130;28;20108;-66
2021/05/07 03:24:58;;;;;;;2.97;2.05;;;;;;;9.33;100.00;95470.31;5009537;28;20079;-66
2021/05/07 03:27:26;;;;;;;2.20;1.70;;;;;;;9.44;100.00;95479.72;5003915;28;20524;-67
2021/05/07 03:29:54;;;;;;;2.08;1.77;;;;;;;9.41;100.00;95487.94;4989701;28;20070;-66
2021/05/07 03:32:22;;;;;;;2.30;2.10;;;;;;;9.39;100.00;95484.63;5002539;28;20520;-66
2021/05/07 03:34:51;;;;;;;5.30;2.17;;;;;;;9.38;100.00;95485.63;5004318;28;20508;-66
2021/05/07 03:37:20;;;;;;;2.15;1.70;;;;;;;9.43;100.00;95492.06;5001857;28;20448;-66
2021/05/07 03:39:49;;;;;;;4.07;2.03;;;;;;;9.58;100.00;95492.22;5007029;28;20069;-67
2021/05/07 03:42:16;;;;;;;2.13;1.70;;;;;;;9.73;100.00;95490.59;5000677;28;20085;-66
2021/05/07 03:44:45;;;;;;;2.88;1.90;;;;;;;9.48;100.00;95495.00;5002773;28;20076;-66
2021/05/07 03:47:12;;;;;;;2.35;2.10;;;;;;;9.62;100.00;95498.81;5004386;28;20473;-66
2021/05/07 03:49:40;;;;;;;2.65;2.00;;;;;;;9.49;100.00;95503.72;5002098;28;20064;-66
2021/05/07 03:52:09;;;;;;;4.10;2.08;;;;;;;9.55;100.00;95507.53;5003067;28;20112;-65
2021/05/07 03:54:37;;;;;;;2.88;1.92;;;;;;;9.53;100.00;95512.94;5004977;28;20092;-67
2021/05/07 03:57:07;;;;;;;2.45;1.67;;;;;;;9.57;100.00;95508.19;5001543;28;20065;-67
2021/05/07 03:59:35;;;;;;;2.05;1.85;;;;;;;9.53;100.00;95515.56;5000168;28;20066;-67
2021/05/07 04:02:03;;;;;;;1.70;1.60;;;;;;;9.36;100.00;95520.00;5004401;28;20061;-67
2021/05/07 04:04:32;;;;;;;3.90;1.60;;;;;;;9.47;100.00;95511.78;5000491;28;20463;-67
2021/05/07 04:07:00;;;;;;;2.10;1.50;;;;;;;9.49;100.00;95520.31;5000640;28;20074;-67
2021/05/07 04:09:32;;;;;;;2.95;2.00;;;;;;;9.48;100.00;95518.69;5003214;28;20088;-66
2021/05/07 04:12:11;;;;;;;3.92;1.77;;;;;;;9.46;100.00;95511.94;5001314;28;20081;-66
2021/05/07 04:14:41;;;;;;;2.10;1.90;;;;;;;9.31;100.00;95516.19;5001581;28;20049;-67
2021/05/07 04:17:10;;;;;;;2.60;1.77;;;;;;;9.35;100.00;95515.69;5000310;28;20528;-66
2021/05/07 04:19:39;;;;;;;3.70;2.38;;;;;;;9.40;100.00;95510.78;5000879;28;20042;-67
2021/05/07 04:22:06;;;;;;;3.85;2.20;;;;;;;9.28;100.00;95517.31;5006102;28;20467;-67
2021/05/07 04:24:35;;;;;;;2.42;1.80;;;;;;;9.24;100.00;95516.00;4993923;28;20563;-67
2021/05/07 04:27:03;;;;;;;4.18;1.95;;;;;;;9.23;100.00;95524.88;5002242;28;20158;-67
2021/05/07 04:29:30;;;;;;;3.70;2.10;;;;;;;9.37;100.00;95526.88;4981473;28;20061;-66
2021/05/07 04:31:59;;;;;;;3.38;2.00;;;;;;;9.24;100.00;95531.78;5002643;28;20523;-66
2021/05/07 04:34:28;;;;;;;4.93;2.20;;;;;;;9.40;100.00;95533.66;5000382;28;20057;-66
2021/05/07 04:36:58;;;;;;;4.28;1.95;;;;;;;9.15;100.00;95528.31;5005515;28;20085;-66
2021/05/07 04:39:26;;;;;;;2.88;2.20;;;;;;;9.41;100.00;95532.66;4999674;28;20065;-67
2021/05/07 04:41:54;;;;;;;5.55;2.00;;;;;;;9.18;100.00;95541.13;5001961;28;20072;-67
2021/05/07 04:44:22;;;;;;;3.10;2.38;;;;;;;9.08;100.00;95540.41;4996946;28;20066;-68
2021/05/07 04:46:50;;;;;;;4.43;2.10;;;;;;;9.15;100.00;95540.63;5001328;28;20080;-68
2021/05/07 04:49:18;;;;;;;3.55;2.17;;;;;;;9.14;100.00;95546.84;5004674;28;20080;-68
2021/05/07 04:51:48;;;;;;;5.40;2.25;;;;;;;9.18;100.00;95546.38;5001328;28;20093;-67
2021/05/07 04:54:16;;;;;;;3.75;2.30;;;;;;;9.00;100.00;95551.72;5003831;28;20034;-68
2021/05/07 04:56:44;;;;;;;2.58;2.10;;;;;;;8.79;100.00;95565.25;5001862;28;20072;-68
2021/05/07 04:59:12;;;;;;;2.90;1.98;;;;;;;8.97;100.00;95565.19;4987468;28;20070;-68
2021/05/07 05:01:40;;;;;;;3.45;2.08;;;;;;;9.08;100.00;95571.97;5003353;28;20066;-68
2021/05/07 05:04:09;;;;;;;4.25;2.10;;;;;;;8.92;100.00;95575.38;5001175;28;20085;-66
2021/05/07 05:06:37;;;;;;;3.25;2.25;;;;;;;8.67;100.00;95565.66;5006330;28;22308;-67
2021/05/07 05:09:06;;;;;;;2.35;2.00;;;;;;;8.75;100.00;95568.38;5003955;28;20038;-68
2021/05/07 05:11:34;;;;;;;3.10;1.85;;;;;;;8.60;100.00;95564.63;5002521;28;20066;-68
2021/05/07 05:14:02;;;;;;;2.15;1.95;;;;;;;8.50;100.00;95568.22;4986472;28;20065;-68
2021/05/07 05:16:31;;;;;;;2.10;1.80;;;;;;;8.38;100.00;95569.44;5002895;28;20181;-67
2021/05/07 05:18:59;;;;;;;2.75;1.77;;;;;;;8.40;100.00;95580.63;5005096;28;20116;-68
2021/05/07 05:21:27;;;;;;;1.85;1.75;;;;;;;8.49;100.00;95584.94;5000847;28;20062;-67
2021/05/07 05:23:55;;;;;;;3.42;1.70;;;;;;;8.31;100.00;95597.25;5005728;28;20069;-67
2021/05/07 05:26:23;;;;;;;3.25;2.95;;;;;;;8.68;100.00;95596.25;5002352;28;20093;-62
2021/05/07 05:28:51;;;;;;;2.05;1.50;;;;;;;8.52;100.00;95596.94;5004922;28;20065;-64
2021/05/07 05:31:20;;;;;;;2.70;1.63;;;;;;;8.48;100.00;95606.13;5002905;28;20073;-66
2021/05/07 05:33:48;;;;;;;5.57;3.25;;;;;;;8.58;100.00;95612.09;5005730;28;20048;-65
2021/05/07 05:36:17;;;;;;;4.97;3.03;;;;;;;8.59;100.00;95623.44;5005191;28;20069;-66
2021/05/07 05:38:45;;;;;;;4.43;2.30;;;;;;;8.46;100.00;95629.06;5001828;28;20460;-65
2021/05/07 05:41:14;;;;;;;11.27;6.82;;;;;;;8.42;100.00;95620.69;5004026;28;20475;-64
2021/05/07 05:43:45;;;;;;;27.27;24.15;;;;;;;8.48;100.00;95642.91;5000798;28;20073;-65
2021/05/07 05:46:14;;;;;;;1.70;1.55;;;;;;;8.44;100.00;95645.00;5005893;28;20077;-66
2021/05/07 05:48:42;;;;;;;2.00;1.90;;;;;;;8.44;100.00;95641.56;5002012;28;20095;-67
2021/05/07 05:51:10;;;;;;;2.33;1.90;;;;;;;8.35;100.00;95638.00;5002459;28;20062;-64
2021/05/07 05:53:42;;;;;;;3.20;2.17;;;;;;;8.47;100.00;95647.34;5001698;28;20439;-65
2021/05/07 05:56:14;;;;;;;4.70;1.95;;;;;;;8.72;100.00;95639.63;5000110;28;20551;-63
2021/05/07 05:58:41;;;;;;;2.50;1.80;;;;;;;8.44;100.00;95637.13;5004376;28;20061;-66
2021/05/07 06:01:09;;;;;;;2.10;2.00;;;;;;;8.50;100.00;95649.66;5005433;28;20148;-65
2021/05/07 06:03:37;;;;;;;3.97;2.10;;;;;;;8.62;100.00;95652.88;5001293;28;20457;-64
2021/05/07 06:06:05;;;;;;;2.78;2.53;;;;;;;8.66;100.00;95648.94;5005504;28;20064;-65
2021/05/07 06:08:33;;;;;;;3.33;1.90;;;;;;;8.85;100.00;95647.94;5001423;28;20066;-65
2021/05/07 06:11:01;;;;;;;2.15;1.83;;;;;;;8.53;100.00;95654.63;5005436;28;20456;-66
2021/05/07 06:13:30;;;;;;;1.90;1.80;;;;;;;8.71;100.00;95666.91;5000980;28;20073;-66
2021/05/07 06:15:58;;;;;;;2.30;1.80;;;;;;;8.71;100.00;95669.53;5004175;28;20074;-63
2021/05/07 06:18:26;;;;;;;2.42;1.90;;;;;;;8.83;100.00;95675.38;4999869;28;20061;-64
2021/05/07 06:20:54;;;;;;;2.10;2.00;;;;;;;8.90;100.00;95677.22;5004015;28;20057;-65
2021/05/07 06:23:22;;;;;;;2.10;1.90;;;;;;;8.89;100.00;95680.00;5001775;28;20077;-65
2021/05/07 06:25:50;;;;;;;2.67;1.83;;;;;;;8.88;100.00;95686.22;5004663;28;20054;-65
2021/05/07 06:28:37;;;;;;;2.35;1.92;;;;;;;8.80;100.00;95679.94;5000144;28;20578;-65
2021/05/07 06:31:05;;;;;;;1.88;1.70;;;;;;;8.66;100.00;95684.91;5009234;28;20325;-65
2021/05/07 06:33:33;;;;;;;2.28;1.98;;;;;;;8.64;100.00;95669.31;5003906;28;20521;-65
2021/05/07 06:36:01;;;;;;;9.48;2.20;;;;;;;9.12;100.00;95665.38;4979100;28;20042;-65
2021/05/07 06:38:29;;;;;;;2.88;2.03;;;;;;;9.17;100.00;95659.66;5003449;28;20092;-66
2021/05/07 06:40:57;;;;;;;2.20;2.00;;;;;;;9.48;100.00;95647.63;5000827;28;20468;-64
2021/05/07 06:43:24;;;;;;;2.50;2.13;;;;;;;9.39;100.00;95645.94;4985219;28;20133;-65
2021/05/07 06:45:54;;;;;;;2.38;2.17;;;;;;;9.52;100.00;95646.34;5004179;28;20069;-65
2021/05/07 06:48:22;;;;;;;2.28;2.10;;;;;;;9.78;100.00;95639.38;4984991;28;20068;-66
2021/05/07 06:50:50;;;;;;;2.47;2.15;;;;;;;9.79;100.00;95626.03;4981036;28;20050;-67
2021/05/07 06:53:19;;;;;;;2.47;2.28;;;;;;;9.85;100.00;95640.38;5005658;28;20453;-65
2021/05/07 06:55:47;;;;;;;2.40;2.20;;;;;;;9.75;100.00;95649.22;5000134;28;20073;-67
2021/05/07 06:58:32;;;;;;;2.10;1.95;;;;;;;9.82;100.00;95643.34;4979884;28;20073;-66
2021/05/07 07:01:01;;;;;;;2.55;2.35;;;;;;;9.75;100.00;95643.97;5002980;28;20077;-65
2021/05/07 07:03:29;;;;;;;2.45;2.25;;;;;;;9.69;100.00;95665.66;5003568;28;20061;-65
2021/05/07 07:05:56;;;;;;;2.58;2.38;;;;;;;9.85;100.00;95638.56;4984501;28;20034;-67
2021/05/07 07:08:24;;;;;;;2.60;2.40;;;;;;;10.05;100.00;95648.81;5002673;28;20030;-66
2021/05/07 07:10:52;;;;;;;3.10;2.83;;;;;;;9.69;100.00;95647.22;4987036;28;20049;-64
2021/05/07 07:13:19;;;;;;;2.75;2.55;;;;;;;9.79;100.00;95651.53;4987440;28;20517;-64
2021/05/07 07:15:48;;;;;;;2.65;2.45;;;;;;;9.65;100.00;95648.53;5005693;28;20077;-65
2021/05/07 07:18:19;;;;;;;3.42;2.85;;;;;;;9.44;100.00;95666.53;5002848;28;20073;-66
2021/05/07 07:20:48;;;;;;;2.90;2.60;;;;;;;9.48;100.00;95667.88;4996827;28;20069;-65
2021/05/07 07:23:17;;;;;;;3.05;2.60;;;;;;;9.37;100.00;95670.78;5005283;28;20069;-64
2021/05/07 07:25:45;;;;;;;2.47;2.28;;;;;;;9.21;100.00;95676.75;5000129;28;20070;-63
2021/05/07 07:28:17;;;;;;;1.92;1.77;;;;;;;8.68;100.00;95689.06;5001291;28;20092;-64
2021/05/07 07:30:45;;;;;;;3.08;2.00;;;;;;;8.68;100.00;95701.38;5002169;28;20077;-65
2021/05/07 07:33:13;;;;;;;2.30;2.10;;;;;;;8.70;100.00;95708.09;4986469;28;20080;-66
2021/05/07 07:35:42;;;;;;;2.13;1.92;;;;;;;8.75;100.00;95703.25;5003994;28;20080;-66
2021/05/07 07:38:10;;;;;;;2.35;1.98;;;;;;;8.62;100.00;95700.16;4999254;28;20084;-65
2021/05/07 07:40:37;;;;;;;1.80;1.70;;;;;;;8.30;100.00;95693.63;5003628;28;21141;-67
2021/05/07 07:43:05;;;;;;;1.80;1.70;;;;;;;8.12;100.00;95692.78;5001089;28;20062;-67
2021/05/07 07:45:33;;;;;;;1.85;1.75;;;;;;;8.17;100.00;95695.78;5002580;28;20561;-66
2021/05/07 07:48:01;;;;;;;2.20;2.08;;;;;;;8.55;100.00;95694.69;5001717;28;20070;-68
2021/05/07 07:50:28;;;;;;;1.67;1.58;;;;;;;8.34;100.00;95699.41;5002502;28;20069;-68
2021/05/07 07:52:57;;;;;;;1.70;1.60;;;;;;;8.27;100.00;95714.91;5000625;28;20066;-68
2021/05/07 07:55:25;;;;;;;1.60;1.50;;;;;;;7.88;100.00;95730.09;5004889;28;20588;-67
2021/05/07 07:57:52;;;;;;;1.83;1.73;;;;;;;7.94;100.00;95737.34;5002717;28;20084;-68
2021/05/07 08:00:21;;;;;;;1.70;1.60;;;;;;;7.82;100.00;95743.78;5002404;28;20070;-68
2021/05/07 08:02:53;;;;;;;1.63;1.52;;;;;;;8.02;100.00;95749.78;4998914;28;20077;-69
2021/05/07 08:05:21;;;;;;;1.75;1.65;;;;;;;7.84;100.00;95754.94;5002912;28;20077;-70
2021/05/07 08:07:49;;;;;;;1.70;1.60;;;;;;;7.89;100.00;95757.16;5001664;28;20632;-69
2021/05/07 08:10:18;;;;;;;1.58;1.48;;;;;;;7.68;100.00;95773.97;5003705;28;20479;-71
2021/05/07 08:12:46;;;;;;;1.77;1.67;;;;;;;7.96;100.00;95768.72;5001172;28;20507;-70
2021/05/07 08:15:14;;;;;;;2.47;1.75;;;;;;;7.74;100.00;95768.13;5003821;28;20061;-69
2021/05/07 08:17:42;;;;;;;3.10;1.75;;;;;;;7.73;100.00;95779.59;5000483;28;20487;-71
2021/05/07 08:20:11;;;;;;;1.83;1.73;;;;;;;7.75;100.00;95795.19;5001505;28;20062;-70
2021/05/07 08:22:39;;;;;;;1.92;1.83;;;;;;;7.86;100.00;95787.16;4985036;28;20404;-68
2021/05/07 08:25:10;;;;;;;1.73;1.63;;;;;;;7.77;100.00;95793.25;5001685;28;20073;-69
2021/05/07 08:27:39;;;;;;;2.22;1.70;;;;;;;7.85;100.00;95788.94;5002106;28;20045;-69
2021/05/07 08:30:08;;;;;;;1.70;1.60;;;;;;;7.74;100.00;95797.00;5000080;28;20070;-69
2021/05/07 08:32:36;;;;;;;1.80;1.70;;;;;;;7.78;100.00;95790.50;4998238;28;20050;-69
2021/05/07 08:35:05;;;;;;;1.80;1.70;;;;;;;7.91;100.00;95794.56;4997318;28;20421;-68
2021/05/07 08:37:36;;;;;;;1.45;1.40;;;;;;;8.08;100.00;95793.81;5009592;28;20076;-68
2021/05/07 08:40:08;;;;;;;1.98;1.67;;;;;;;8.70;100.00;95802.72;5003316;28;20149;-70
2021/05/07 08:42:36;;;;;;;1.60;1.50;;;;;;;8.99;100.00;95802.53;5000650;28;20126;-68
2021/05/07 08:45:08;;;;;;;1.50;1.40;;;;;;;9.24;100.00;95800.91;5003502;28;20073;-71
2021/05/07 08:47:36;;;;;;;1.77;1.67;;;;;;;9.26;100.00;95809.50;5001580;28;20069;-71
2021/05/07 08:50:06;;;;;;;1.60;1.50;;;;;;;8.94;100.00;95819.72;5001029;28;20120;-69
2021/05/07 08:52:36;;;;;;;1.50;1.40;;;;;;;8.88;100.00;95815.06;5002009;28;20082;-68
2021/05/07 08:55:06;;;;;;;1.63;1.40;;;;;;;8.43;100.00;95831.69;5006460;28;20468;-67
2021/05/07 08:57:35;;;;;;;1.45;1.38;;;;;;;8.28;100.00;95833.94;4996765;28;20042;-70
2021/05/07 09:00:04;;;;;;;1.75;1.65;;;;;;;8.28;100.00;95839.19;4995175;28;20108;-67
2021/05/07 09:02:33;;;;;;;2.13;1.80;;;;;;;8.80;100.00;95839.47;4998487;28;20149;-69
2021/05/07 09:05:01;;;;;;;1.80;1.30;;;;;;;8.61;100.00;95843.06;5004471;28;20044;-67
2021/05/07 09:07:29;;;;;;;1.75;1.50;;;;;;;8.72;100.00;95842.84;5002795;28;20085;-70
2021/05/07 09:09:59;;;;;;;1.20;1.20;;;;;;;8.65;100.00;95843.59;5004726;28;20521;-70
2021/05/07 09:12:29;;;;;;;1.58;1.48;;;;;;;9.13;100.00;95835.38;5005781;28;20069;-68
2021/05/07 09:14:57;;;;;;;1.33;1.20;;;;;;;9.03;100.00;95835.44;4998018;28;20061;-67
2021/05/07 09:17:29;;;;;;;1.52;1.30;;;;;;;9.16;100.00;95837.69;5006468;28;20074;-67
2021/05/07 09:20:09;;;;;;;1.10;1.10;;;;;;;9.47;100.00;95830.22;5000937;28;20066;-68
2021/05/07 09:22:38;;;;;;;1.40;1.40;;;;;;;9.89;100.00;95834.75;5003849;28;20444;-69
2021/05/07 09:25:11;;;;;;;1.10;1.10;;;;;;;10.06;100.00;95834.88;5008015;28;20471;-70
2021/05/07 09:27:39;;;;;;;1.17;1.17;;;;;;;10.43;100.00;95837.22;5002720;28;20308;-66
2021/05/07 09:30:24;;;;;;;1.13;1.13;;;;;;;10.14;100.00;95845.44;5002270;28;20076;-68
2021/05/07 09:32:53;;;;;;;1.50;1.40;;;;;;;10.18;100.00;95847.59;5002987;28;20065;-68
2021/05/07 09:35:25;;;;;;;1.70;1.60;;;;;;;10.38;100.00;95858.75;5005101;28;20042;-67
2021/05/07 09:37:58;;;;;;;1.70;1.60;;;;;;;10.35;100.00;95866.16;5002863;28;20065;-67
2021/05/07 09:40:26;;;;;;;1.75;1.65;;;;;;;9.90;100.00;95878.53;5007437;28;20118;-69
2021/05/07 09:43:04;;;;;;;1.50;1.40;;;;;;;9.58;100.00;95879.16;5005202;28;20655;-68
2021/05/07 09:45:32;;;;;;;1.75;1.65;;;;;;;10.11;100.00;95867.63;5005871;28;20081;-68
2021/05/07 09:48:01;;;;;;;2.10;1.90;;;;;;;10.28;100.00;95862.50;5004054;28;20061;-67
2021/05/07 09:50:40;;;;;;;2.35;1.85;;;;;;;9.92;100.00;95879.22;5006207;28;20066;-69
2021/05/07 09:53:10;;;;;;;2.60;1.92;;;;;;;10.10;100.00;95887.06;5003348;28;20076;-73
2021/05/07 09:55:38;;;;;;;1.90;1.75;;;;;;;10.01;100.00;95898.53;5004585;28;20096;-68
2021/05/07 09:58:07;;;;;;;1.83;1.73;;;;;;;9.28;100.00;95891.72;5006581;28;20417;-71
2021/05/07 10:00:34;;;;;;;1.80;1.70;;;;;;;9.37;100.00;95902.34;4990172;28;20131;-68
2021/05/07 10:03:02;;;;;;;2.20;2.08;;;;;;;9.64;100.00;95902.22;5006414;28;20076;-68
2021/05/07 10:05:30;;;;;;;3.05;2.17;;;;;;;10.08;100.00;95914.53;4988081;28;20074;-66
2021/05/07 10:07:59;;;;;;;2.00;1.80;;;;;;;10.11;100.00;95925.59;4985140;28;20069;-68
2021/05/07 10:10:28;;;;;;;2.13;1.92;;;;;;;9.97;100.00;95931.44;5007285;28;20092;-68
2021/05/07 10:12:59;;;;;;;2.20;2.00;;;;;;;10.64;100.00;95935.16;4990946;28;20420;-68
2021/05/07 10:15:28;;;;;;;3.70;1.95;;;;;;;10.44;100.00;95934.56;5004325;28;20064;-68
2021/05/07 10:17:56;;;;;;;2.50;2.30;;;;;;;10.78;100.00;95938.19;5004645;28;20089;-68
2021/05/07 10:20:26;;;;;;;2.58;2.03;;;;;;;10.11;100.00;95932.69;5001481;28;20065;-68
2021/05/07 10:23:01;;;;;;;2.50;2.30;;;;;;;10.03;100.00;95951.06;5003426;28;20062;-68
2021/05/07 10:25:29;;;;;;;3.13;2.83;;;;;;;10.27;100.00;95940.72;5004576;28;20458;-68
2021/05/07 10:27:57;;;;;;;3.25;2.95;;;;;;;10.27;100.00;95959.16;4998961;28;20089;-68
2021/05/07 10:30:27;;;;;;;3.35;3.05;;;;;;;9.97;100.00;95966.50;5005431;28;20127;-68
2021/05/07 10:32:57;;;;;;;4.05;3.30;;;;;;;10.07;100.00;95961.13;4999233;28;20069;-67
2021/05/07 10:35:33;;;;;;;3.60;3.30;;;;;;;10.37;100.00;95959.91;4988572;28;23884;-68
2021/05/07 10:38:13;;;;;;;3.80;3.15;;;;;;;10.68;100.00;95959.41;5006345;28;20543;-68
2021/05/07 10:40:41;;;;;;;4.27;3.00;;;;;;;10.58;100.00;95958.69;5003893;28;20520;-68
2021/05/07 10:43:10;;;;;;;3.92;3.22;;;;;;;10.97;100.00;95953.75;5005058;28;20121;-68
2021/05/07 10:45:51;;;;;;;4.22;3.10;;;;;;;10.72;100.00;95955.47;5004648;28;20053;-67
2021/05/07 10:48:25;;;;;;;3.28;2.97;;;;;;;11.09;100.00;95954.31;5006284;28;20061;-69
2021/05/07 10:50:55;;;;;;;3.70;3.30;;;;;;;10.88;100.00;95960.00;5005944;28;20073;-68
2021/05/07 10:53:41;;;;;;;3.97;3.57;;;;;;;11.16;100.00;95964.03;5008361;28;20065;-68
2021/05/07 10:56:21;;;;;;;3.20;2.90;;;;;;;11.02;100.00;95948.84;5006364;28;20037;-68
2021/05/07 10:58:51;;;;;;;3.38;2.95;;;;;;;10.51;100.00;95950.59;5011590;28;20033;-69
2021/05/07 11:01:27;;;;;;;3.50;3.20;;;;;;;11.23;100.00;95951.03;5010032;28;20069;-69
2021/05/07 11:04:07;;;;;;;3.92;2.95;;;;;;;11.24;100.00;95970.34;5012620;28;20045;-68
2021/05/07 11:06:37;;;;;;;3.25;2.95;;;;;;;11.49;100.00;95961.47;5009248;28;20046;-69
2021/05/07 11:09:17;;;;;;;3.50;3.20;;;;;;;11.04;100.00;95954.75;5009308;28;20045;-69
2021/05/07 11:11:45;;;;;;;3.15;2.85;;;;;;;11.02;100.00;95972.56;5009108;28;20046;-68
2021/05/07 11:14:15;;;;;;;3.30;3.00;;;;;;;10.91;100.00;95975.50;5011438;28;20041;-68
2021/05/07 11:16:44;;;;;;;2.50;2.30;;;;;;;11.08;100.00;95977.22;5004908;28;20461;-70
2021/05/07 11:19:25;;;;;;;3.35;2.92;;;;;;;11.06;100.00;95989.75;5003902;28;20092;-70
2021/05/07 11:21:55;;;;;;;3.10;2.80;;;;;;;11.76;100.00;95980.66;5006492;28;20062;-69
2021/05/07 11:24:26;;;;;;;4.43;2.78;;;;;;;10.97;100.00;96001.22;5009447;28;20435;-70
2021/05/07 11:26:54;;;;;;;3.42;2.90;;;;;;;10.97;100.00;95995.13;5008708;28;20042;-69
2021/05/07 11:29:32;;;;;;;3.30;3.00;;;;;;;11.05;100.00;96005.75;5011822;28;20428;-71
2021/05/07 11:32:16;;;;;;;3.13;2.63;;;;;;;10.50;100.00;95988.47;5009215;28;20042;-69
2021/05/07 11:34:53;;;;;;;3.67;3.10;;;;;;;10.66;100.00;96006.19;5011664;28;20420;-71
2021/05/07 11:37:28;;;;;;;3.63;3.33;;;;;;;10.95;100.00;96021.69;5007900;28;20123;-71
2021/05/07 11:40:18;;;;;;;5.63;3.22;;;;;;;10.89;100.00;96022.31;4982912;28;20057;-69
2021/05/07 11:42:47;;;;;;;2.75;2.55;;;;;;;11.12;100.00;96027.88;5010969;28;20054;-69